sensor_id;sensor_type;location;lat;lon;timestamp;P1;durP1;ratioP1;P2;durP2;ratioP2
78402;SDS011;67687;43.508;1.504;2023-02-28T00:01:28;6.93;;;4.10;;
78402;SDS011;67687;43.508;1.504;2023-02-28T00:03:55;8.98;;;4.30;;
78402;SDS011;67687;43.508;1.504;2023-02-28T00:06:22;7.37;;;4.00;;
78402;SDS011;67687;43.508;1.504;2023-02-28T00:08:49;6.78;;;3.90;;
78402;SDS011;67687;43.508;1.504;2023-02-28T00:11:18;7.25;;;3.90;;
78402;SDS011;67687;43.508;1.504;2023-02-28T00:13:45;6.85;;;4.30;;
78402;SDS011;67687;43.508;1.504;2023-02-28T00:16:16;8.52;;;4.25;;
78402;SDS011;67687;43.508;1.504;2023-02-28T00:18:44;7.23;;;4.23;;
78402;SDS011;67687;43.508;1.504;2023-02-28T00:21:12;6.22;;;3.90;;
78402;SDS011;67687;43.508;1.504;2023-02-28T00:23:39;6.57;;;3.80;;
78402;SDS011;67687;43.508;1.504;2023-02-28T00:26:06;8.18;;;4.00;;
78402;SDS011;67687;43.508;1.504;2023-02-28T00:28:36;7.70;;;4.25;;
78402;SDS011;67687;43.508;1.504;2023-02-28T00:31:03;8.47;;;3.83;;
78402;SDS011;67687;43.508;1.504;2023-02-28T00:33:30;6.63;;;4.03;;
78402;SDS011;67687;43.508;1.504;2023-02-28T00:36:01;7.95;;;4.03;;
78402;SDS011;67687;43.508;1.504;2023-02-28T00:38:32;8.20;;;4.30;;
78402;SDS011;67687;43.508;1.504;2023-02-28T00:40:59;6.85;;;4.40;;
78402;SDS011;67687;43.508;1.504;2023-02-28T00:43:30;8.30;;;4.30;;
78402;SDS011;67687;43.508;1.504;2023-02-28T00:45:59;8.02;;;4.28;;
78402;SDS011;67687;43.508;1.504;2023-02-28T00:48:26;7.28;;;4.40;;
78402;SDS011;67687;43.508;1.504;2023-02-28T00:50:53;6.75;;;4.18;;
78402;SDS011;67687;43.508;1.504;2023-02-28T00:53:20;7.00;;;3.60;;
78402;SDS011;67687;43.508;1.504;2023-02-28T00:55:48;7.00;;;4.23;;
78402;SDS011;67687;43.508;1.504;2023-02-28T00:58:15;6.57;;;4.13;;
78402;SDS011;67687;43.508;1.504;2023-02-28T01:00:42;6.55;;;3.97;;
78402;SDS011;67687;43.508;1.504;2023-02-28T01:03:15;8.05;;;4.35;;
78402;SDS011;67687;43.508;1.504;2023-02-28T01:05:43;7.70;;;5.00;;
78402;SDS011;67687;43.508;1.504;2023-02-28T01:08:10;7.97;;;4.47;;
78402;SDS011;67687;43.508;1.504;2023-02-28T01:10:37;6.65;;;4.80;;
78402;SDS011;67687;43.508;1.504;2023-02-28T01:13:04;7.43;;;4.85;;
78402;SDS011;67687;43.508;1.504;2023-02-28T01:15:31;8.70;;;4.65;;
78402;SDS011;67687;43.508;1.504;2023-02-28T01:17:58;7.35;;;4.70;;
78402;SDS011;67687;43.508;1.504;2023-02-28T01:20:27;7.47;;;4.67;;
78402;SDS011;67687;43.508;1.504;2023-02-28T01:22:53;7.70;;;4.53;;
78402;SDS011;67687;43.508;1.504;2023-02-28T01:25:23;6.93;;;4.40;;
78402;SDS011;67687;43.508;1.504;2023-02-28T01:27:51;8.02;;;4.40;;
78402;SDS011;67687;43.508;1.504;2023-02-28T01:30:18;8.18;;;4.55;;
78402;SDS011;67687;43.508;1.504;2023-02-28T01:32:45;8.20;;;4.80;;
78402;SDS011;67687;43.508;1.504;2023-02-28T01:35:12;7.05;;;4.40;;
78402;SDS011;67687;43.508;1.504;2023-02-28T01:37:40;7.35;;;4.47;;
78402;SDS011;67687;43.508;1.504;2023-02-28T01:40:07;10.45;;;4.40;;
78402;SDS011;67687;43.508;1.504;2023-02-28T01:42:35;7.70;;;5.15;;
78402;SDS011;67687;43.508;1.504;2023-02-28T01:45:07;8.77;;;4.70;;
78402;SDS011;67687;43.508;1.504;2023-02-28T01:47:44;7.32;;;4.57;;
78402;SDS011;67687;43.508;1.504;2023-02-28T01:50:12;9.38;;;4.70;;
78402;SDS011;67687;43.508;1.504;2023-02-28T01:52:42;10.30;;;5.18;;
78402;SDS011;67687;43.508;1.504;2023-02-28T01:55:09;7.63;;;4.65;;
78402;SDS011;67687;43.508;1.504;2023-02-28T01:57:38;7.70;;;4.40;;
78402;SDS011;67687;43.508;1.504;2023-02-28T02:00:08;7.13;;;4.78;;
78402;SDS011;67687;43.508;1.504;2023-02-28T02:02:38;7.97;;;4.63;;
78402;SDS011;67687;43.508;1.504;2023-02-28T02:05:06;8.27;;;4.75;;
78402;SDS011;67687;43.508;1.504;2023-02-28T02:07:36;8.05;;;4.85;;
78402;SDS011;67687;43.508;1.504;2023-02-28T02:10:10;9.70;;;4.93;;
78402;SDS011;67687;43.508;1.504;2023-02-28T02:12:48;8.27;;;4.97;;
78402;SDS011;67687;43.508;1.504;2023-02-28T02:15:23;7.78;;;4.65;;
78402;SDS011;67687;43.508;1.504;2023-02-28T02:17:53;8.35;;;4.55;;
78402;SDS011;67687;43.508;1.504;2023-02-28T02:32:54;8.82;;;4.35;;
78402;SDS011;67687;43.508;1.504;2023-02-28T02:35:53;8.60;;;4.65;;
78402;SDS011;67687;43.508;1.504;2023-02-28T02:38:24;7.40;;;4.37;;
78402;SDS011;67687;43.508;1.504;2023-02-28T02:41:01;7.32;;;4.35;;
78402;SDS011;67687;43.508;1.504;2023-02-28T02:43:34;10.68;;;4.38;;
78402;SDS011;67687;43.508;1.504;2023-02-28T02:46:04;7.40;;;4.20;;
78402;SDS011;67687;43.508;1.504;2023-02-28T02:48:33;7.68;;;4.38;;
78402;SDS011;67687;43.508;1.504;2023-02-28T02:51:04;6.93;;;4.23;;
78402;SDS011;67687;43.508;1.504;2023-02-28T02:53:37;8.93;;;4.57;;
78402;SDS011;67687;43.508;1.504;2023-02-28T02:56:07;7.72;;;4.80;;
78402;SDS011;67687;43.508;1.504;2023-02-28T02:58:36;7.65;;;4.40;;
78402;SDS011;67687;43.508;1.504;2023-02-28T03:01:07;7.43;;;4.50;;
78402;SDS011;67687;43.508;1.504;2023-02-28T03:03:36;7.53;;;4.17;;
78402;SDS011;67687;43.508;1.504;2023-02-28T03:06:05;6.53;;;4.43;;
78402;SDS011;67687;43.508;1.504;2023-02-28T03:08:34;7.43;;;4.40;;
78402;SDS011;67687;43.508;1.504;2023-02-28T03:11:03;9.07;;;5.25;;
78402;SDS011;67687;43.508;1.504;2023-02-28T03:16:35;7.07;;;4.83;;
78402;SDS011;67687;43.508;1.504;2023-02-28T03:19:06;8.32;;;4.95;;
78402;SDS011;67687;43.508;1.504;2023-02-28T03:21:47;9.18;;;5.00;;
78402;SDS011;67687;43.508;1.504;2023-02-28T03:24:19;8.35;;;4.88;;
78402;SDS011;67687;43.508;1.504;2023-02-28T03:26:52;9.18;;;5.38;;
78402;SDS011;67687;43.508;1.504;2023-02-28T03:29:27;8.20;;;4.80;;
78402;SDS011;67687;43.508;1.504;2023-02-28T03:31:58;7.68;;;4.70;;
78402;SDS011;67687;43.508;1.504;2023-02-28T03:34:29;8.63;;;4.78;;
78402;SDS011;67687;43.508;1.504;2023-02-28T03:37:02;9.57;;;5.40;;
78402;SDS011;67687;43.508;1.504;2023-02-28T03:39:34;7.72;;;4.68;;
78402;SDS011;67687;43.508;1.504;2023-02-28T03:42:04;9.07;;;4.77;;
78402;SDS011;67687;43.508;1.504;2023-02-28T03:44:34;7.55;;;4.60;;
78402;SDS011;67687;43.508;1.504;2023-02-28T03:47:05;8.98;;;5.00;;
78402;SDS011;67687;43.508;1.504;2023-02-28T03:49:36;9.45;;;5.25;;
78402;SDS011;67687;43.508;1.504;2023-02-28T03:52:10;8.43;;;4.95;;
78402;SDS011;67687;43.508;1.504;2023-02-28T03:54:38;8.17;;;4.80;;
78402;SDS011;67687;43.508;1.504;2023-02-28T03:57:10;6.97;;;4.18;;
78402;SDS011;67687;43.508;1.504;2023-02-28T03:59:42;9.13;;;5.30;;
78402;SDS011;67687;43.508;1.504;2023-02-28T04:02:11;8.43;;;5.00;;
78402;SDS011;67687;43.508;1.504;2023-02-28T04:04:41;7.97;;;5.05;;
78402;SDS011;67687;43.508;1.504;2023-02-28T04:07:14;8.97;;;5.20;;
78402;SDS011;67687;43.508;1.504;2023-02-28T04:09:47;8.65;;;5.30;;
78402;SDS011;67687;43.508;1.504;2023-02-28T04:12:14;8.82;;;5.10;;
78402;SDS011;67687;43.508;1.504;2023-02-28T04:14:41;8.68;;;5.35;;
78402;SDS011;67687;43.508;1.504;2023-02-28T04:17:08;9.82;;;5.70;;
78402;SDS011;67687;43.508;1.504;2023-02-28T04:19:35;9.47;;;5.20;;
78402;SDS011;67687;43.508;1.504;2023-02-28T04:22:02;7.57;;;4.70;;
78402;SDS011;67687;43.508;1.504;2023-02-28T04:24:30;8.65;;;5.25;;
78402;SDS011;67687;43.508;1.504;2023-02-28T04:26:57;8.45;;;5.57;;
78402;SDS011;67687;43.508;1.504;2023-02-28T04:29:25;8.63;;;5.70;;
78402;SDS011;67687;43.508;1.504;2023-02-28T04:31:53;9.90;;;5.53;;
78402;SDS011;67687;43.508;1.504;2023-02-28T04:34:23;8.70;;;5.50;;
78402;SDS011;67687;43.508;1.504;2023-02-28T04:36:50;8.27;;;5.88;;
78402;SDS011;67687;43.508;1.504;2023-02-28T04:39:19;10.30;;;6.10;;
78402;SDS011;67687;43.508;1.504;2023-02-28T04:41:48;9.43;;;6.03;;
78402;SDS011;67687;43.508;1.504;2023-02-28T04:44:15;10.37;;;6.20;;
78402;SDS011;67687;43.508;1.504;2023-02-28T04:46:42;9.63;;;5.35;;
78402;SDS011;67687;43.508;1.504;2023-02-28T04:49:10;11.60;;;5.85;;
78402;SDS011;67687;43.508;1.504;2023-02-28T04:51:38;9.68;;;6.15;;
78402;SDS011;67687;43.508;1.504;2023-02-28T04:54:05;10.65;;;5.65;;
78402;SDS011;67687;43.508;1.504;2023-02-28T04:56:32;9.37;;;6.30;;
78402;SDS011;67687;43.508;1.504;2023-02-28T04:59:00;9.63;;;5.80;;
78402;SDS011;67687;43.508;1.504;2023-02-28T05:01:27;10.45;;;6.50;;
78402;SDS011;67687;43.508;1.504;2023-02-28T05:03:56;10.02;;;6.00;;
78402;SDS011;67687;43.508;1.504;2023-02-28T05:06:24;10.55;;;6.55;;
78402;SDS011;67687;43.508;1.504;2023-02-28T05:08:52;10.87;;;5.97;;
78402;SDS011;67687;43.508;1.504;2023-02-28T05:11:20;10.65;;;6.40;;
78402;SDS011;67687;43.508;1.504;2023-02-28T05:13:48;11.50;;;6.68;;
78402;SDS011;67687;43.508;1.504;2023-02-28T05:16:17;10.38;;;6.30;;
78402;SDS011;67687;43.508;1.504;2023-02-28T05:18:44;9.93;;;6.32;;
78402;SDS011;67687;43.508;1.504;2023-02-28T05:21:22;10.80;;;6.90;;
78402;SDS011;67687;43.508;1.504;2023-02-28T05:23:51;11.23;;;6.40;;
78402;SDS011;67687;43.508;1.504;2023-02-28T05:26:19;11.63;;;6.75;;
78402;SDS011;67687;43.508;1.504;2023-02-28T05:28:46;10.23;;;6.47;;
78402;SDS011;67687;43.508;1.504;2023-02-28T05:31:12;9.95;;;6.60;;
78402;SDS011;67687;43.508;1.504;2023-02-28T05:33:41;12.40;;;6.40;;
78402;SDS011;67687;43.508;1.504;2023-02-28T05:36:08;11.15;;;7.20;;
78402;SDS011;67687;43.508;1.504;2023-02-28T05:38:35;10.82;;;6.47;;
78402;SDS011;67687;43.508;1.504;2023-02-28T05:41:04;10.25;;;6.70;;
78402;SDS011;67687;43.508;1.504;2023-02-28T05:43:32;10.40;;;6.05;;
78402;SDS011;67687;43.508;1.504;2023-02-28T05:45:59;11.97;;;6.53;;
78402;SDS011;67687;43.508;1.504;2023-02-28T05:48:28;9.88;;;6.32;;
78402;SDS011;67687;43.508;1.504;2023-02-28T05:50:58;11.63;;;6.65;;
78402;SDS011;67687;43.508;1.504;2023-02-28T05:53:25;9.55;;;6.32;;
78402;SDS011;67687;43.508;1.504;2023-02-28T05:55:52;10.55;;;6.68;;
78402;SDS011;67687;43.508;1.504;2023-02-28T05:58:19;12.90;;;6.50;;
78402;SDS011;67687;43.508;1.504;2023-02-28T06:00:45;12.48;;;6.72;;
78402;SDS011;67687;43.508;1.504;2023-02-28T06:03:12;11.80;;;7.32;;
78402;SDS011;67687;43.508;1.504;2023-02-28T06:05:39;10.95;;;6.80;;
78402;SDS011;67687;43.508;1.504;2023-02-28T06:08:07;19.98;;;10.43;;
78402;SDS011;67687;43.508;1.504;2023-02-28T06:10:34;12.00;;;7.07;;
78402;SDS011;67687;43.508;1.504;2023-02-28T06:13:01;13.10;;;7.30;;
78402;SDS011;67687;43.508;1.504;2023-02-28T06:15:29;12.35;;;7.03;;
78402;SDS011;67687;43.508;1.504;2023-02-28T06:17:56;10.10;;;6.35;;
78402;SDS011;67687;43.508;1.504;2023-02-28T06:20:25;12.32;;;7.40;;
78402;SDS011;67687;43.508;1.504;2023-02-28T06:22:54;9.93;;;6.20;;
78402;SDS011;67687;43.508;1.504;2023-02-28T06:25:25;12.00;;;7.15;;
78402;SDS011;67687;43.508;1.504;2023-02-28T06:27:52;11.73;;;6.50;;
78402;SDS011;67687;43.508;1.504;2023-02-28T06:30:19;12.48;;;6.22;;
78402;SDS011;67687;43.508;1.504;2023-02-28T06:32:49;11.60;;;6.47;;
78402;SDS011;67687;43.508;1.504;2023-02-28T06:35:17;10.90;;;6.00;;
78402;SDS011;67687;43.508;1.504;2023-02-28T06:37:44;11.35;;;6.15;;
78402;SDS011;67687;43.508;1.504;2023-02-28T06:40:12;14.68;;;6.28;;
78402;SDS011;67687;43.508;1.504;2023-02-28T06:42:41;12.15;;;6.40;;
78402;SDS011;67687;43.508;1.504;2023-02-28T06:45:08;9.65;;;5.93;;
78402;SDS011;67687;43.508;1.504;2023-02-28T06:47:36;10.87;;;6.80;;
78402;SDS011;67687;43.508;1.504;2023-02-28T06:50:04;10.30;;;6.43;;
78402;SDS011;67687;43.508;1.504;2023-02-28T06:52:31;11.02;;;6.78;;
78402;SDS011;67687;43.508;1.504;2023-02-28T06:55:01;11.30;;;6.60;;
78402;SDS011;67687;43.508;1.504;2023-02-28T06:57:28;9.63;;;6.03;;
78402;SDS011;67687;43.508;1.504;2023-02-28T06:59:58;10.50;;;6.57;;
78402;SDS011;67687;43.508;1.504;2023-02-28T07:02:26;11.98;;;6.88;;
78402;SDS011;67687;43.508;1.504;2023-02-28T07:04:53;12.77;;;6.32;;
78402;SDS011;67687;43.508;1.504;2023-02-28T07:07:20;10.48;;;6.13;;
78402;SDS011;67687;43.508;1.504;2023-02-28T07:09:55;11.93;;;6.30;;
78402;SDS011;67687;43.508;1.504;2023-02-28T07:12:29;11.93;;;6.33;;
78402;SDS011;67687;43.508;1.504;2023-02-28T07:14:58;11.77;;;7.15;;
78402;SDS011;67687;43.508;1.504;2023-02-28T07:17:30;10.68;;;6.00;;
78402;SDS011;67687;43.508;1.504;2023-02-28T07:19:59;10.82;;;6.07;;
78402;SDS011;67687;43.508;1.504;2023-02-28T07:22:29;11.38;;;6.30;;
78402;SDS011;67687;43.508;1.504;2023-02-28T07:24:57;10.20;;;5.93;;
78402;SDS011;67687;43.508;1.504;2023-02-28T07:27:24;11.60;;;6.60;;
78402;SDS011;67687;43.508;1.504;2023-02-28T07:29:53;8.32;;;4.55;;
78402;SDS011;67687;43.508;1.504;2023-02-28T07:32:21;10.15;;;5.65;;
78402;SDS011;67687;43.508;1.504;2023-02-28T07:34:53;11.18;;;6.60;;
78402;SDS011;67687;43.508;1.504;2023-02-28T07:37:38;9.57;;;5.60;;
78402;SDS011;67687;43.508;1.504;2023-02-28T07:40:19;10.23;;;6.15;;
78402;SDS011;67687;43.508;1.504;2023-02-28T07:42:49;9.52;;;5.90;;
78402;SDS011;67687;43.508;1.504;2023-02-28T07:45:26;10.75;;;5.65;;
78402;SDS011;67687;43.508;1.504;2023-02-28T07:48:05;8.60;;;5.53;;
78402;SDS011;67687;43.508;1.504;2023-02-28T07:50:45;10.13;;;6.43;;
78402;SDS011;67687;43.508;1.504;2023-02-28T07:53:22;10.40;;;5.95;;
78402;SDS011;67687;43.508;1.504;2023-02-28T07:55:49;9.32;;;5.97;;
78402;SDS011;67687;43.508;1.504;2023-02-28T07:58:29;9.60;;;5.55;;
78402;SDS011;67687;43.508;1.504;2023-02-28T08:00:57;10.55;;;5.43;;
78402;SDS011;67687;43.508;1.504;2023-02-28T08:03:27;8.67;;;6.00;;
78402;SDS011;67687;43.508;1.504;2023-02-28T08:06:00;10.05;;;5.50;;
78402;SDS011;67687;43.508;1.504;2023-02-28T08:08:30;7.82;;;5.22;;
78402;SDS011;67687;43.508;1.504;2023-02-28T08:11:00;8.95;;;5.45;;
78402;SDS011;67687;43.508;1.504;2023-02-28T08:13:40;10.02;;;5.60;;
78402;SDS011;67687;43.508;1.504;2023-02-28T08:16:35;8.43;;;5.07;;
78402;SDS011;67687;43.508;1.504;2023-02-28T08:19:05;9.88;;;5.57;;
78402;SDS011;67687;43.508;1.504;2023-02-28T08:21:36;8.20;;;5.30;;
78402;SDS011;67687;43.508;1.504;2023-02-28T08:24:06;10.48;;;5.72;;
78402;SDS011;67687;43.508;1.504;2023-02-28T08:26:37;9.13;;;5.38;;
78402;SDS011;67687;43.508;1.504;2023-02-28T08:29:11;10.33;;;5.90;;
78402;SDS011;67687;43.508;1.504;2023-02-28T08:31:55;8.88;;;5.20;;
78402;SDS011;67687;43.508;1.504;2023-02-28T08:34:46;8.77;;;5.18;;
78402;SDS011;67687;43.508;1.504;2023-02-28T08:37:27;7.70;;;5.05;;
78402;SDS011;67687;43.508;1.504;2023-02-28T08:39:57;8.30;;;5.25;;
78402;SDS011;67687;43.508;1.504;2023-02-28T08:42:24;9.27;;;5.37;;
78402;SDS011;67687;43.508;1.504;2023-02-28T08:44:52;8.40;;;5.57;;
78402;SDS011;67687;43.508;1.504;2023-02-28T08:47:19;7.70;;;5.38;;
78402;SDS011;67687;43.508;1.504;2023-02-28T08:49:48;8.00;;;5.05;;
78402;SDS011;67687;43.508;1.504;2023-02-28T08:52:15;8.43;;;5.15;;
78402;SDS011;67687;43.508;1.504;2023-02-28T08:54:43;10.87;;;5.50;;
78402;SDS011;67687;43.508;1.504;2023-02-28T08:57:10;8.07;;;4.90;;
78402;SDS011;67687;43.508;1.504;2023-02-28T08:59:37;7.28;;;5.05;;
78402;SDS011;67687;43.508;1.504;2023-02-28T09:02:07;9.00;;;5.38;;
78402;SDS011;67687;43.508;1.504;2023-02-28T09:04:35;7.50;;;4.90;;
78402;SDS011;67687;43.508;1.504;2023-02-28T09:07:04;9.70;;;5.20;;
78402;SDS011;67687;43.508;1.504;2023-02-28T09:09:33;7.65;;;4.63;;
78402;SDS011;67687;43.508;1.504;2023-02-28T09:12:00;8.05;;;4.90;;
78402;SDS011;67687;43.508;1.504;2023-02-28T09:14:30;8.18;;;5.25;;
78402;SDS011;67687;43.508;1.504;2023-02-28T09:16:57;7.85;;;4.50;;
78402;SDS011;67687;43.508;1.504;2023-02-28T09:19:26;9.33;;;4.83;;
78402;SDS011;67687;43.508;1.504;2023-02-28T09:21:53;10.25;;;5.25;;
78402;SDS011;67687;43.508;1.504;2023-02-28T09:24:22;9.80;;;4.90;;
78402;SDS011;67687;43.508;1.504;2023-02-28T09:26:49;8.75;;;4.90;;
78402;SDS011;67687;43.508;1.504;2023-02-28T09:29:16;9.70;;;4.78;;
78402;SDS011;67687;43.508;1.504;2023-02-28T09:31:43;8.33;;;4.70;;
78402;SDS011;67687;43.508;1.504;2023-02-28T09:34:10;7.95;;;4.72;;
78402;SDS011;67687;43.508;1.504;2023-02-28T09:36:37;9.63;;;5.10;;
78402;SDS011;67687;43.508;1.504;2023-02-28T09:39:05;9.65;;;4.97;;
78402;SDS011;67687;43.508;1.504;2023-02-28T09:41:37;8.13;;;4.93;;
78402;SDS011;67687;43.508;1.504;2023-02-28T09:44:13;8.00;;;5.10;;
78402;SDS011;67687;43.508;1.504;2023-02-28T09:46:44;9.05;;;4.65;;
78402;SDS011;67687;43.508;1.504;2023-02-28T09:49:15;9.23;;;4.90;;
78402;SDS011;67687;43.508;1.504;2023-02-28T09:51:45;6.88;;;4.60;;
78402;SDS011;67687;43.508;1.504;2023-02-28T09:54:19;8.95;;;4.90;;
78402;SDS011;67687;43.508;1.504;2023-02-28T09:56:50;7.37;;;4.30;;
78402;SDS011;67687;43.508;1.504;2023-02-28T09:59:23;7.15;;;4.88;;
78402;SDS011;67687;43.508;1.504;2023-02-28T10:01:57;7.68;;;4.53;;
78402;SDS011;67687;43.508;1.504;2023-02-28T10:04:35;7.65;;;5.20;;
78402;SDS011;67687;43.508;1.504;2023-02-28T10:07:06;6.95;;;4.60;;
78402;SDS011;67687;43.508;1.504;2023-02-28T10:09:53;8.07;;;4.93;;
78402;SDS011;67687;43.508;1.504;2023-02-28T10:12:39;8.40;;;4.88;;
78402;SDS011;67687;43.508;1.504;2023-02-28T10:15:08;9.02;;;5.13;;
78402;SDS011;67687;43.508;1.504;2023-02-28T10:17:41;8.82;;;5.10;;
78402;SDS011;67687;43.508;1.504;2023-02-28T10:20:10;7.20;;;4.60;;
78402;SDS011;67687;43.508;1.504;2023-02-28T10:22:40;9.67;;;4.93;;
78402;SDS011;67687;43.508;1.504;2023-02-28T10:25:17;8.38;;;5.03;;
78402;SDS011;67687;43.508;1.504;2023-02-28T10:27:48;8.27;;;5.10;;
78402;SDS011;67687;43.508;1.504;2023-02-28T10:30:16;8.30;;;5.00;;
78402;SDS011;67687;43.508;1.504;2023-02-28T10:32:44;8.38;;;5.07;;
78402;SDS011;67687;43.508;1.504;2023-02-28T10:35:16;9.10;;;5.40;;
78402;SDS011;67687;43.508;1.504;2023-02-28T10:37:46;9.05;;;5.50;;
78402;SDS011;67687;43.508;1.504;2023-02-28T10:43:03;8.27;;;5.60;;
78402;SDS011;67687;43.508;1.504;2023-02-28T10:45:32;10.02;;;5.93;;
78402;SDS011;67687;43.508;1.504;2023-02-28T10:48:04;8.73;;;5.40;;
78402;SDS011;67687;43.508;1.504;2023-02-28T10:50:33;7.68;;;5.30;;
78402;SDS011;67687;43.508;1.504;2023-02-28T10:53:08;9.85;;;5.63;;
78402;SDS011;67687;43.508;1.504;2023-02-28T10:55:57;8.38;;;5.00;;
78402;SDS011;67687;43.508;1.504;2023-02-28T10:58:29;9.18;;;5.80;;
78402;SDS011;67687;43.508;1.504;2023-02-28T11:00:57;8.00;;;5.00;;
78402;SDS011;67687;43.508;1.504;2023-02-28T11:03:28;9.88;;;5.32;;
78402;SDS011;67687;43.508;1.504;2023-02-28T11:05:57;8.80;;;5.75;;
78402;SDS011;67687;43.508;1.504;2023-02-28T11:08:24;9.43;;;5.50;;
78402;SDS011;67687;43.508;1.504;2023-02-28T11:10:55;9.60;;;5.05;;
78402;SDS011;67687;43.508;1.504;2023-02-28T11:13:25;9.57;;;5.50;;
78402;SDS011;67687;43.508;1.504;2023-02-28T11:15:55;9.18;;;5.20;;
78402;SDS011;67687;43.508;1.504;2023-02-28T11:18:24;8.05;;;4.90;;
78402;SDS011;67687;43.508;1.504;2023-02-28T11:20:54;9.23;;;5.50;;
78402;SDS011;67687;43.508;1.504;2023-02-28T11:23:22;9.10;;;5.93;;
78402;SDS011;67687;43.508;1.504;2023-02-28T11:25:53;8.00;;;5.47;;
78402;SDS011;67687;43.508;1.504;2023-02-28T11:28:24;8.10;;;5.35;;
78402;SDS011;67687;43.508;1.504;2023-02-28T11:31:01;8.63;;;5.60;;
78402;SDS011;67687;43.508;1.504;2023-02-28T11:33:40;9.65;;;5.50;;
78402;SDS011;67687;43.508;1.504;2023-02-28T11:36:11;9.50;;;5.35;;
78402;SDS011;67687;43.508;1.504;2023-02-28T11:38:39;8.87;;;5.87;;
78402;SDS011;67687;43.508;1.504;2023-02-28T11:41:10;9.40;;;5.57;;
78402;SDS011;67687;43.508;1.504;2023-02-28T11:43:50;9.57;;;6.10;;
78402;SDS011;67687;43.508;1.504;2023-02-28T11:46:26;11.35;;;6.10;;
78402;SDS011;67687;43.508;1.504;2023-02-28T11:49:01;9.15;;;5.53;;
78402;SDS011;67687;43.508;1.504;2023-02-28T11:51:32;8.30;;;5.50;;
78402;SDS011;67687;43.508;1.504;2023-02-28T11:54:04;9.90;;;5.93;;
78402;SDS011;67687;43.508;1.504;2023-02-28T11:56:38;9.90;;;5.72;;
78402;SDS011;67687;43.508;1.504;2023-02-28T11:59:14;8.60;;;5.85;;
78402;SDS011;67687;43.508;1.504;2023-02-28T12:02:01;11.40;;;6.07;;
78402;SDS011;67687;43.508;1.504;2023-02-28T12:04:34;10.17;;;6.47;;
78402;SDS011;67687;43.508;1.504;2023-02-28T12:07:09;9.93;;;6.30;;
78402;SDS011;67687;43.508;1.504;2023-02-28T12:09:44;10.20;;;6.43;;
78402;SDS011;67687;43.508;1.504;2023-02-28T12:12:22;10.40;;;6.47;;
78402;SDS011;67687;43.508;1.504;2023-02-28T12:15:01;10.20;;;5.95;;
78402;SDS011;67687;43.508;1.504;2023-02-28T12:17:55;10.03;;;6.40;;
78402;SDS011;67687;43.508;1.504;2023-02-28T12:20:29;10.70;;;6.00;;
78402;SDS011;67687;43.508;1.504;2023-02-28T12:23:05;9.07;;;6.25;;
78402;SDS011;67687;43.508;1.504;2023-02-28T12:25:56;9.20;;;6.07;;
78402;SDS011;67687;43.508;1.504;2023-02-28T12:31:14;10.77;;;6.23;;
78402;SDS011;67687;43.508;1.504;2023-02-28T12:33:47;9.77;;;5.50;;
78402;SDS011;67687;43.508;1.504;2023-02-28T12:36:17;9.43;;;5.80;;
78402;SDS011;67687;43.508;1.504;2023-02-28T12:38:47;9.02;;;5.75;;
78402;SDS011;67687;43.508;1.504;2023-02-28T12:41:16;8.38;;;5.20;;
78402;SDS011;67687;43.508;1.504;2023-02-28T12:43:46;9.03;;;6.00;;
78402;SDS011;67687;43.508;1.504;2023-02-28T12:46:16;8.75;;;5.88;;
78402;SDS011;67687;43.508;1.504;2023-02-28T12:48:59;8.77;;;5.88;;
78402;SDS011;67687;43.508;1.504;2023-02-28T12:51:27;10.15;;;6.03;;
78402;SDS011;67687;43.508;1.504;2023-02-28T12:54:00;9.50;;;6.25;;
78402;SDS011;67687;43.508;1.504;2023-02-28T12:56:34;10.67;;;5.83;;
78402;SDS011;67687;43.508;1.504;2023-02-28T12:59:10;9.38;;;5.43;;
78402;SDS011;67687;43.508;1.504;2023-02-28T13:01:51;9.05;;;5.95;;
78402;SDS011;67687;43.508;1.504;2023-02-28T13:04:49;9.52;;;5.88;;
78402;SDS011;67687;43.508;1.504;2023-02-28T13:07:35;8.30;;;5.75;;
78402;SDS011;67687;43.508;1.504;2023-02-28T13:10:13;9.33;;;5.80;;
78402;SDS011;67687;43.508;1.504;2023-02-28T13:12:47;8.73;;;5.72;;
78402;SDS011;67687;43.508;1.504;2023-02-28T13:15:16;9.07;;;5.03;;
78402;SDS011;67687;43.508;1.504;2023-02-28T13:17:49;8.48;;;5.28;;
78402;SDS011;67687;43.508;1.504;2023-02-28T13:20:18;8.52;;;4.95;;
78402;SDS011;67687;43.508;1.504;2023-02-28T13:22:47;7.93;;;5.17;;
78402;SDS011;67687;43.508;1.504;2023-02-28T13:34:34;9.80;;;5.40;;
78402;SDS011;67687;43.508;1.504;2023-02-28T13:42:55;8.52;;;5.07;;
78402;SDS011;67687;43.508;1.504;2023-02-28T13:45:23;8.45;;;5.47;;
78402;SDS011;67687;43.508;1.504;2023-02-28T13:47:53;9.88;;;5.85;;
78402;SDS011;67687;43.508;1.504;2023-02-28T13:50:23;9.60;;;5.53;;
78402;SDS011;67687;43.508;1.504;2023-02-28T13:52:59;7.90;;;5.20;;
78402;SDS011;67687;43.508;1.504;2023-02-28T13:56:00;9.13;;;5.25;;
78402;SDS011;67687;43.508;1.504;2023-02-28T13:58:35;8.82;;;5.13;;
78402;SDS011;67687;43.508;1.504;2023-02-28T14:01:11;7.15;;;5.03;;
78402;SDS011;67687;43.508;1.504;2023-02-28T14:03:58;6.83;;;4.40;;
78402;SDS011;67687;43.508;1.504;2023-02-28T14:06:46;8.82;;;5.13;;
78402;SDS011;67687;43.508;1.504;2023-02-28T14:09:19;8.60;;;4.82;;
78402;SDS011;67687;43.508;1.504;2023-02-28T14:11:50;8.43;;;5.45;;
78402;SDS011;67687;43.508;1.504;2023-02-28T14:17:22;8.43;;;4.90;;
78402;SDS011;67687;43.508;1.504;2023-02-28T14:19:51;7.15;;;4.60;;
78402;SDS011;67687;43.508;1.504;2023-02-28T14:22:21;8.88;;;5.05;;
78402;SDS011;67687;43.508;1.504;2023-02-28T14:25:20;8.48;;;4.70;;
78402;SDS011;67687;43.508;1.504;2023-02-28T14:27:52;8.45;;;4.70;;
78402;SDS011;67687;43.508;1.504;2023-02-28T14:33:38;6.80;;;4.65;;
78402;SDS011;67687;43.508;1.504;2023-02-28T14:36:16;7.07;;;4.30;;
78402;SDS011;67687;43.508;1.504;2023-02-28T14:38:46;7.30;;;4.28;;
78402;SDS011;67687;43.508;1.504;2023-02-28T14:41:18;6.78;;;4.10;;
78402;SDS011;67687;43.508;1.504;2023-02-28T14:43:49;7.30;;;4.07;;
78402;SDS011;67687;43.508;1.504;2023-02-28T14:46:17;7.90;;;4.63;;
78402;SDS011;67687;43.508;1.504;2023-02-28T14:48:45;8.63;;;4.57;;
78402;SDS011;67687;43.508;1.504;2023-02-28T14:51:13;8.77;;;4.68;;
78402;SDS011;67687;43.508;1.504;2023-02-28T14:53:44;7.88;;;4.80;;
78402;SDS011;67687;43.508;1.504;2023-02-28T14:56:20;8.33;;;4.97;;
78402;SDS011;67687;43.508;1.504;2023-02-28T14:58:50;7.57;;;5.13;;
78402;SDS011;67687;43.508;1.504;2023-02-28T15:01:19;8.13;;;5.32;;
78402;SDS011;67687;43.508;1.504;2023-02-28T15:03:47;8.48;;;4.97;;
78402;SDS011;67687;43.508;1.504;2023-02-28T15:06:15;8.73;;;5.05;;
78402;SDS011;67687;43.508;1.504;2023-02-28T15:08:43;8.83;;;4.80;;
78402;SDS011;67687;43.508;1.504;2023-02-28T15:11:12;9.00;;;5.00;;
78402;SDS011;67687;43.508;1.504;2023-02-28T15:13:42;7.63;;;4.80;;
78402;SDS011;67687;43.508;1.504;2023-02-28T15:16:12;8.88;;;5.10;;
78402;SDS011;67687;43.508;1.504;2023-02-28T15:18:43;8.10;;;5.07;;
78402;SDS011;67687;43.508;1.504;2023-02-28T15:21:13;7.87;;;4.67;;
78402;SDS011;67687;43.508;1.504;2023-02-28T15:23:42;7.75;;;4.90;;
78402;SDS011;67687;43.508;1.504;2023-02-28T15:26:11;7.43;;;4.82;;
78402;SDS011;67687;43.508;1.504;2023-02-28T15:28:41;7.65;;;4.95;;
78402;SDS011;67687;43.508;1.504;2023-02-28T15:31:17;8.20;;;4.95;;
78402;SDS011;67687;43.508;1.504;2023-02-28T15:33:52;7.80;;;4.63;;
78402;SDS011;67687;43.508;1.504;2023-02-28T15:36:19;8.45;;;4.75;;
78402;SDS011;67687;43.508;1.504;2023-02-28T15:38:50;7.53;;;5.15;;
78402;SDS011;67687;43.508;1.504;2023-02-28T15:41:24;7.32;;;4.80;;
78402;SDS011;67687;43.508;1.504;2023-02-28T15:46:42;8.20;;;4.07;;
78402;SDS011;67687;43.508;1.504;2023-02-28T15:49:12;8.43;;;4.70;;
78402;SDS011;67687;43.508;1.504;2023-02-28T15:51:44;7.55;;;4.38;;
78402;SDS011;67687;43.508;1.504;2023-02-28T15:54:12;8.40;;;4.47;;